AirNav   Everest Fuels
 
 1103 users online  

6II5 Southport Heliport
Indianapolis, Indiana, USA

GOING TO INDIANAPOLIS?


FAA INFORMATION EFFECTIVE 26 JANUARY 2023

Location

FAA Identifier: 6II5
Lat/Long: 39-40-05.1630N 086-05-41.9460W
39-40.086050N 086-05.699100W
39.6681008,-86.0949850
(estimated)
Elevation: 801 ft. / 244 m (estimated)
Variation: 02W (1985)
From city: 3 miles N of INDIANAPOLIS, IN
Time zone: UTC -5 (UTC -4 during Daylight Saving Time)
Zip code: 46237

Heliport Operations

Heliport use: Private use. Permission required prior to landing
Activation date: 06/1991
Control tower: no
ARTCC: INDIANAPOLIS CENTER
FSS: TERRE HAUTE FLIGHT SERVICE STATION
Attendance: UNATNDD
Segmented circle: no

Heliport Communications

WX AWOS-3P at HFY (2.5 nm S): 118.525 (317-882-5862)
WX AWOS-3 at 8A4 (6 nm NW): 135.525 (317-955-3160)
WX ASOS at IND (10 nm W): PHONE 317-241-0348
WX ASOS at EYE (13 nm NW): 121.575 (317-329-1754)
WX AWOS-3 at MQJ (14 nm NE): 124.175 (317-335-3037)
WX ASOS at GEZ (14 nm E): 121.55 (317-398-0246)
WX AWOS-3 at UMP (16 nm N): 119.375 (317-842-3911)
WX AWOS-3P at 2R2 (18 nm W): 118.025 (317-718-4872)
WX AWOS-3 at HBE (20 nm S): 119.675 (812-526-1745)

Nearby radio navigation aids

VOR radial/distance  VOR name  Freq  Var
SHBr279/12.7SHELBYVILLE VOR/DME116.1501E
VHPr124/15.3BRICKYARD VORTAC116.3001E
OOMr039/39.6HOOSIER VORTAC110.2002W

 
NDB name  Hdg/Dist  Freq  Var  ID
METROPOLITAN190/16.333803WUMP ..- -- .--.
NEW CASTLE256/38.038506WUWL ..- .-- .-..

Heliport Services

Runway Information

Helipad H1

Dimensions: 70 x 70 ft. / 21 x 21 m
Surface: asphalt
Traffic pattern: leftleft

Heliport Ownership and Management from official FAA records

Ownership: Privately-owned
Owner: BOWMAN FAMILY HOLDINGS INC
6755 SOUTH GRAY ROAD
INDIANAPOLIS, IN 46247
Phone 317-788-0084
Manager: FRED BOWMAN
6755 SOUTH GRAY ROAD
INDIANAPOLIS, IN 46237
Phone 317-788-0084

Additional Remarks

FOR CD CTC INDIANAPOLIS APCH AT 317-227-5743.

Instrument Procedures

There are no published instrument procedures at 6II5.

Some nearby airports with instrument procedures:

KHFY - Indy South Greenwood Airport (2 nm S)
8A4 - Indianapolis Downtown Heliport (6 nm NW)
KIND - Indianapolis International Airport (10 nm W)
KEYE - Eagle Creek Airpark (13 nm NW)
KMQJ - Indianapolis Regional Airport (14 nm NE)
KGEZ - Shelbyville Municipal Airport (14 nm E)
KUMP - Indianapolis Metro Airport (16 nm N)
2R2 - Hendricks County Airport-Gordon Graham Field (18 nm W)
 
Loc | Ops | Rwys | IFR | FBO | Links
Com | Nav | Svcs | Stats | Notes
Area around 6II5 (Southport Heliport)
 
Road maps at: MapQuest Bing Google
 
Aerial photo
No photo
 
Sectional chart

 
Airport distance calculator
Flying to Southport Heliport? Find the distance to fly.

From to 6II5

Sunrise and sunset
Times for 08-Feb-2023
 Local
(UTC-5)
 Zulu
(UTC)
Morning civil twilight07:1812:18
Sunrise07:4612:46
Sunset18:1123:11
Evening civil twilight18:3923:39

Current date and time
Zulu (UTC)  09-Feb-2023 03:18:44
Local (UTC-5)  08-Feb-2023 22:18:44
 
METAR
KHFY 
2nm S 
090255Z AUTO 10005KT 5SM SCT015 BKN037 OVC080 07/07 A3006 RMK AO2 T00700070
KIND 
9nm W 
090302Z 10008KT 4SM -RA BR BKN009 OVC015 07/06 A3003 RMK AO2 P0001 T00670056
KEYE 
14nm NW 
090304Z AUTO 10007KT 4SM -RA BR OVC009 07/06 A3003 RMK AO2 P0001 T00670056
KMQJ 
14nm NE 
090255Z AUTO 09005KT 5SM OVC017 06/06 A3006 RMK AO1
KGEZ 
15nm E 
090253Z AUTO 09011KT 5SM -RA BR BKN020 BKN026 OVC065 08/06 A3005 RMK AO2 SLP179 P0007 60026 T00830061 58030
KUMP 
16nm N 
090255Z AUTO 00000KT 5SM SCT008 OVC014 07/07 A3006 RMK AO2 P0005 60019 T00660066
TAF
KIND 
9nm W 
090105Z 0901/1006 12008KT 6SM -RA BR OVC015 FM090500 11012KT 2SM RA BR OVC005 WS020/16040KT FM090900 16014G28KT 5SM -RA BR OVC019 WS020/19050KT FM091300 19024G39KT 6SM -SHRA BR OVC030 WS020/19055KT FM091500 21027G43KT P6SM VCSH BKN030 FM100000 25021G36KT P6SM OVC015
NOTAMs
Click for the latest NOTAMs
NOTAMs are issued by the DoD/FAA and will open in a separate window not controlled by AirNav.

 

 
 

Would you like to see your business listed on this page?

 If your business provides an interesting product or service to pilots, flight crews, aircraft, or users of the Southport Heliport, you should consider listing it here.  To start the listing process, click on the button below
 
Add a business
 

Other Pages about Southport Heliport

Update a link
 
Copyright © AirNav, LLC. All rights reserved. Privacy Policy  Contact